createdAt,value
2019-03-25T00:02:34.653Z,4.78
2019-03-25T00:05:10.046Z,4.75
2019-03-25T00:07:45.338Z,4.76
2019-03-25T00:10:20.034Z,4.69
2019-03-25T00:12:55.012Z,4.61
2019-03-25T00:15:29.767Z,4.52
2019-03-25T00:18:04.264Z,4.45
2019-03-25T00:20:39.431Z,4.43
2019-03-25T00:23:13.895Z,4.38
2019-03-25T00:25:48.691Z,4.34
2019-03-25T00:28:23.804Z,4.26
2019-03-25T00:30:59.827Z,4.20
2019-03-25T00:33:35.783Z,4.14
2019-03-25T00:36:10.801Z,4.13
2019-03-25T00:38:45.655Z,4.09
2019-03-25T00:41:20.990Z,4.05
2019-03-25T00:43:56.031Z,4.04
2019-03-25T00:46:30.626Z,4.07
2019-03-25T00:49:06.683Z,4.14
2019-03-25T00:51:41.386Z,4.22
2019-03-25T00:54:19.901Z,4.29
2019-03-25T00:56:58.368Z,4.38
2019-03-25T00:59:34.087Z,4.49
2019-03-25T01:02:09.105Z,4.61
2019-03-25T01:04:44.215Z,4.69
2019-03-25T01:07:19.532Z,4.72
2019-03-25T01:09:54.466Z,4.73
2019-03-25T01:12:29.475Z,4.74
2019-03-25T01:15:07.811Z,4.73
2019-03-25T01:17:42.591Z,4.74
2019-03-25T01:20:17.866Z,4.75
2019-03-25T01:22:52.934Z,4.76
2019-03-25T01:25:28.594Z,4.76
2019-03-25T01:28:03.360Z,4.77
2019-03-25T01:30:38.570Z,4.78
2019-03-25T01:33:14.056Z,4.81
2019-03-25T01:35:48.835Z,4.80
2019-03-25T01:38:23.735Z,4.76
2019-03-25T01:40:59.003Z,4.76
2019-03-25T01:43:34.133Z,4.77
2019-03-25T01:46:08.866Z,4.81
2019-03-25T01:48:43.990Z,4.86
2019-03-25T01:51:19.237Z,4.91
2019-03-25T01:53:53.926Z,4.94
2019-03-25T01:56:29.924Z,4.98
2019-03-25T01:59:04.679Z,5.01
2019-03-25T02:01:39.670Z,5.03
2019-03-25T02:04:15.042Z,5.03
2019-03-25T02:06:49.691Z,5.04
2019-03-25T02:09:24.848Z,5.04
2019-03-25T02:12:00.395Z,5.03
2019-03-25T02:14:35.503Z,5.03
2019-03-25T02:17:10.504Z,5.04
2019-03-25T02:19:45.916Z,5.05
2019-03-25T02:22:21.119Z,5.07
2019-03-25T02:24:56.651Z,5.12
2019-03-25T02:27:32.170Z,5.18
2019-03-25T02:30:09.313Z,5.22
2019-03-25T02:32:45.331Z,5.27
2019-03-25T02:35:20.512Z,5.34
2019-03-25T02:37:55.909Z,5.38
2019-03-25T02:40:30.466Z,5.42
2019-03-25T02:43:05.128Z,5.48
2019-03-25T02:45:40.654Z,5.52
2019-03-25T02:48:16.223Z,5.56
2019-03-25T02:50:54.018Z,5.59
2019-03-25T02:53:28.955Z,5.61
2019-03-25T02:56:03.596Z,5.63
2019-03-25T02:58:39.863Z,5.66
2019-03-25T03:01:15.255Z,5.69
2019-03-25T03:03:50.136Z,5.73
2019-03-25T03:06:26.792Z,5.75
2019-03-25T03:09:01.627Z,5.77
2019-03-25T03:11:36.223Z,5.77
2019-03-25T03:14:15.146Z,5.79
2019-03-25T03:16:50.338Z,5.83
2019-03-25T03:19:24.884Z,5.85
2019-03-25T03:22:00.100Z,5.89
2019-03-25T03:24:34.959Z,5.91
2019-03-25T03:27:09.968Z,5.92
2019-03-25T03:29:45.381Z,5.94
2019-03-25T03:32:20.763Z,5.96
2019-03-25T03:34:55.465Z,5.99
2019-03-25T03:37:31.772Z,5.99
2019-03-25T03:40:06.592Z,6.01
2019-03-25T03:42:41.910Z,6.04
2019-03-25T03:45:18.846Z,6.08
2019-03-25T03:47:53.426Z,6.09
2019-03-25T03:50:29.272Z,6.10
2019-03-25T03:53:04.284Z,6.12
2019-03-25T03:55:42.103Z,6.14
2019-03-25T03:58:16.972Z,6.17
2019-03-25T04:00:52.104Z,6.23
2019-03-25T04:03:28.111Z,6.30
2019-03-25T04:06:02.717Z,6.38
2019-03-25T04:08:37.700Z,6.49
2019-03-25T04:11:13.805Z,6.52
2019-03-25T04:13:48.298Z,6.59
2019-03-25T04:16:22.854Z,6.63
2019-03-25T04:18:59.030Z,6.66
2019-03-25T04:21:34.018Z,6.68
2019-03-25T04:24:08.488Z,6.67
2019-03-25T04:26:45.835Z,6.62
2019-03-25T04:29:20.397Z,6.55
2019-03-25T04:31:55.259Z,6.50
2019-03-25T04:34:32.237Z,6.51
2019-03-25T04:37:07.508Z,6.48
2019-03-25T04:39:42.369Z,6.44
2019-03-25T04:42:17.647Z,6.43
2019-03-25T04:44:52.504Z,6.45
2019-03-25T04:47:26.983Z,6.44
2019-03-25T04:50:02.662Z,6.44
2019-03-25T04:52:37.887Z,6.45
2019-03-25T04:55:12.714Z,6.45
2019-03-25T04:57:47.938Z,6.44
2019-03-25T05:00:37.458Z,6.41
2019-03-25T05:03:12.955Z,6.40
2019-03-25T05:05:48.895Z,6.37
2019-03-25T05:08:25.542Z,6.38
2019-03-25T05:11:03.730Z,6.33
2019-03-25T05:13:38.554Z,6.29
2019-03-25T05:16:13.940Z,6.26
2019-03-25T05:18:48.931Z,6.24
2019-03-25T05:21:24.124Z,6.24
2019-03-25T05:24:01.796Z,6.21
2019-03-25T05:26:37.515Z,6.15
2019-03-25T05:29:13.995Z,6.10
2019-03-25T05:31:50.940Z,6.06
2019-03-25T05:34:25.407Z,6.04
2019-03-25T05:37:02.103Z,6.04
2019-03-25T05:39:37.941Z,6.04
2019-03-25T05:42:13.404Z,6.04
2019-03-25T05:44:48.521Z,6.04
2019-03-25T05:47:23.152Z,6.01
2019-03-25T05:49:58.422Z,5.95
2019-03-25T05:52:33.469Z,5.95
2019-03-25T05:55:08.778Z,5.96
2019-03-25T05:57:44.417Z,5.95
2019-03-25T06:00:22.349Z,5.94
2019-03-25T06:02:57.614Z,5.90
2019-03-25T06:05:34.798Z,5.85
2019-03-25T06:08:11.042Z,5.86
2019-03-25T06:10:46.770Z,5.86
2019-03-25T06:13:21.520Z,5.92
2019-03-25T06:15:58.575Z,5.94
2019-03-25T06:18:34.007Z,5.85
2019-03-25T06:21:08.541Z,5.74
2019-03-25T06:23:45.471Z,5.62
2019-03-25T06:26:20.939Z,5.52
2019-03-25T06:28:56.311Z,5.45
2019-03-25T06:31:32.747Z,5.45
2019-03-25T06:34:07.542Z,5.57
2019-03-25T06:36:42.339Z,5.68
2019-03-25T06:39:17.798Z,5.81
2019-03-25T06:41:56.016Z,5.89
2019-03-25T06:44:32.413Z,5.99
2019-03-25T06:47:07.482Z,6.14
2019-03-25T06:49:45.453Z,6.12
2019-03-25T06:52:21.506Z,6.03
2019-03-25T06:54:57.419Z,5.88
2019-03-25T06:57:32.382Z,5.76
2019-03-25T07:00:09.397Z,5.78
2019-03-25T07:02:46.071Z,5.95
2019-03-25T07:05:20.878Z,6.11
2019-03-25T07:07:55.924Z,6.24
2019-03-25T07:10:37.987Z,6.32
2019-03-25T07:13:12.930Z,6.42
2019-03-25T07:15:48.446Z,6.43
2019-03-25T07:18:24.643Z,6.43
2019-03-25T07:20:59.627Z,6.46
2019-03-25T07:23:34.265Z,6.49
2019-03-25T07:26:09.380Z,6.55
2019-03-25T07:28:44.905Z,6.56
2019-03-25T07:31:19.894Z,6.60
2019-03-25T07:33:55.319Z,6.58
2019-03-25T07:36:30.206Z,6.59
2019-03-25T07:39:05.873Z,6.55
2019-03-25T07:41:41.251Z,6.54
2019-03-25T07:44:15.931Z,6.58
2019-03-25T07:46:51.499Z,6.68
2019-03-25T07:49:29.842Z,6.72
2019-03-25T07:52:07.679Z,6.83
2019-03-25T07:54:43.127Z,6.89
2019-03-25T07:57:17.833Z,6.96
2019-03-25T07:59:53.166Z,7.05
2019-03-25T08:02:27.700Z,7.14
2019-03-25T08:05:03.235Z,7.08
2019-03-25T08:07:38.498Z,7.07
2019-03-25T08:10:20.358Z,7.15
2019-03-25T08:12:56.179Z,7.30
2019-03-25T08:15:33.789Z,7.38
2019-03-25T08:18:15.199Z,7.55
2019-03-25T08:20:49.736Z,7.67
2019-03-25T08:23:25.803Z,7.69
2019-03-25T08:26:00.669Z,7.73
2019-03-25T08:28:36.857Z,7.72
2019-03-25T08:31:11.838Z,7.76
2019-03-25T08:33:46.624Z,7.62
2019-03-25T08:36:21.824Z,7.55
2019-03-25T08:39:02.844Z,7.51
2019-03-25T08:41:38.560Z,7.51
2019-03-25T08:44:14.132Z,7.43
2019-03-25T08:46:49.857Z,7.51
2019-03-25T08:49:24.603Z,7.57
2019-03-25T08:52:00.939Z,7.46
2019-03-25T08:54:38.065Z,7.29
2019-03-25T08:57:18.279Z,7.25
2019-03-25T08:59:53.347Z,7.32
2019-03-25T09:02:27.930Z,7.85
2019-03-25T09:05:05.303Z,8.05
2019-03-25T09:07:41.679Z,7.83
2019-03-25T09:10:18.347Z,8.21
2019-03-25T09:12:53.374Z,8.59
2019-03-25T09:15:41.675Z,8.60
2019-03-25T09:18:18.230Z,9.08
2019-03-25T09:20:52.997Z,8.92
2019-03-25T09:23:30.430Z,8.59
2019-03-25T09:26:05.353Z,8.24
2019-03-25T09:28:40.277Z,8.02
2019-03-25T09:31:18.675Z,7.91
2019-03-25T09:33:56.763Z,7.49
2019-03-25T09:36:32.443Z,7.10
2019-03-25T09:39:08.521Z,6.95
2019-03-25T09:41:43.621Z,6.79
2019-03-25T09:44:19.658Z,6.60
2019-03-25T09:46:56.840Z,6.48
2019-03-25T09:49:31.913Z,6.32
2019-03-25T09:52:08.148Z,6.26
2019-03-25T09:54:43.913Z,6.31
2019-03-25T09:57:20.515Z,6.13
2019-03-25T10:00:00.346Z,6.02
2019-03-25T10:02:43.212Z,5.87
2019-03-25T10:05:23.006Z,5.61
2019-03-25T10:07:59.043Z,5.45
2019-03-25T10:10:36.035Z,5.55
2019-03-25T10:13:22.653Z,5.76
2019-03-25T10:15:58.175Z,6.51
2019-03-25T10:18:43.035Z,7.06
2019-03-25T10:21:18.901Z,7.42
2019-03-25T10:23:55.129Z,7.49
2019-03-25T10:26:42.786Z,7.56
2019-03-25T10:29:17.491Z,7.52
2019-03-25T10:31:52.871Z,7.36
2019-03-25T10:34:32.011Z,7.25
2019-03-25T10:37:07.172Z,6.39
2019-03-25T10:39:42.786Z,5.82
2019-03-25T10:42:18.547Z,6.06
2019-03-25T10:44:54.070Z,6.49
2019-03-25T10:47:29.479Z,7.02
2019-03-25T10:50:05.508Z,7.39
2019-03-25T10:52:41.763Z,7.91
2019-03-25T10:55:16.645Z,8.08
2019-03-25T10:57:56.139Z,8.34
2019-03-25T11:00:32.372Z,8.60
2019-03-25T11:03:10.989Z,9.02
2019-03-25T11:05:49.601Z,9.14
2019-03-25T11:08:30.214Z,9.13
2019-03-25T11:11:07.347Z,9.19
2019-03-25T11:13:42.054Z,8.93
2019-03-25T11:16:24.979Z,8.34
2019-03-25T11:19:01.322Z,7.13
2019-03-25T11:21:37.220Z,6.34
2019-03-25T11:24:12.058Z,6.47
2019-03-25T11:26:47.797Z,6.77
2019-03-25T11:29:23.505Z,7.26
2019-03-25T11:31:59.818Z,7.76
2019-03-25T11:34:36.120Z,8.03
2019-03-25T11:37:11.288Z,8.27
2019-03-25T11:39:49.217Z,8.50
2019-03-25T11:42:24.316Z,8.42
2019-03-25T11:44:59.878Z,8.13
2019-03-25T11:47:34.759Z,7.82
2019-03-25T11:50:10.069Z,7.71
2019-03-25T11:52:44.805Z,8.02
2019-03-25T11:55:19.982Z,8.18
2019-03-25T11:57:56.196Z,8.38
2019-03-25T12:00:33.768Z,8.60
2019-03-25T12:03:12.074Z,8.74
2019-03-25T12:05:50.575Z,8.95
2019-03-25T12:08:29.803Z,9.42
2019-03-25T12:11:05.115Z,9.39
2019-03-25T12:13:40.208Z,9.53
2019-03-25T12:16:17.063Z,9.82
2019-03-25T12:18:54.822Z,10.26
2019-03-25T12:21:32.979Z,9.92
2019-03-25T12:24:11.120Z,9.96
2019-03-25T12:26:47.994Z,10.38
2019-03-25T12:29:29.922Z,10.48
2019-03-25T12:32:06.802Z,10.07
2019-03-25T12:34:42.968Z,9.43
2019-03-25T12:37:21.590Z,8.25
2019-03-25T12:39:57.586Z,7.05
2019-03-25T12:42:49.375Z,6.62
2019-03-25T12:45:24.939Z,6.43
2019-03-25T12:48:01.239Z,6.66
2019-03-25T12:50:37.469Z,6.99
2019-03-25T12:53:13.191Z,7.42
2019-03-25T12:55:48.594Z,7.78
2019-03-25T12:58:26.828Z,8.01
2019-03-25T13:01:03.715Z,8.13
2019-03-25T13:03:40.803Z,8.11
2019-03-25T13:06:17.779Z,8.07
2019-03-25T13:08:52.418Z,8.04
2019-03-25T13:11:29.939Z,8.09
2019-03-25T13:14:04.647Z,8.14
2019-03-25T13:16:39.527Z,8.20
2019-03-25T13:19:14.771Z,8.53
2019-03-25T13:21:50.395Z,8.87
2019-03-25T13:24:29.451Z,8.90
2019-03-25T13:27:13.289Z,8.89
2019-03-25T13:29:52.913Z,9.08
2019-03-25T13:32:32.761Z,9.24
2019-03-25T13:35:09.211Z,9.38
2019-03-25T13:37:45.509Z,9.38
2019-03-25T13:40:21.164Z,9.41
2019-03-25T13:42:57.717Z,9.47
2019-03-25T13:45:34.683Z,9.31
2019-03-25T13:48:10.244Z,8.85
2019-03-25T13:50:45.378Z,8.44
2019-03-25T13:53:21.333Z,8.06
2019-03-25T13:55:58.751Z,7.71
2019-03-25T13:58:42.992Z,7.41
2019-03-25T14:01:19.219Z,7.28
2019-03-25T14:03:57.042Z,7.30
2019-03-25T14:06:32.566Z,7.28
2019-03-25T14:09:10.443Z,7.40
2019-03-25T14:11:46.166Z,7.59
2019-03-25T14:14:24.069Z,7.68
2019-03-25T14:16:59.567Z,7.74
2019-03-25T14:19:34.376Z,8.11
2019-03-25T14:22:11.934Z,8.34
2019-03-25T14:24:47.773Z,8.38
2019-03-25T14:27:25.686Z,8.24
2019-03-25T14:30:14.386Z,8.20
2019-03-25T14:32:55.982Z,8.12
2019-03-25T14:35:32.607Z,8.04
2019-03-25T14:38:07.743Z,7.91
2019-03-25T14:40:44.271Z,7.96
2019-03-25T14:43:19.742Z,8.24
2019-03-25T14:45:56.211Z,8.45
2019-03-25T14:48:31.508Z,8.70
2019-03-25T14:51:08.215Z,8.73
2019-03-25T14:53:45.627Z,8.75
2019-03-25T14:56:21.083Z,8.82
2019-03-25T14:58:56.400Z,8.98
2019-03-25T15:01:31.072Z,9.01
2019-03-25T15:04:06.443Z,9.01
2019-03-25T15:06:53.432Z,8.99
2019-03-25T15:09:28.114Z,8.79
2019-03-25T15:12:04.640Z,8.63
2019-03-25T15:14:42.497Z,8.61
2019-03-25T15:17:19.739Z,8.64
2019-03-25T15:19:55.039Z,8.81
2019-03-25T15:22:30.612Z,8.87
2019-03-25T15:25:07.470Z,9.10
2019-03-25T15:27:50.228Z,9.03
2019-03-25T15:30:36.018Z,8.90
2019-03-25T15:33:13.452Z,8.70
2019-03-25T15:35:49.822Z,8.55
2019-03-25T15:38:25.647Z,8.34
2019-03-25T15:41:01.192Z,8.00
2019-03-25T15:43:38.697Z,7.65
2019-03-25T15:46:16.717Z,7.50
2019-03-25T15:48:55.072Z,7.59
2019-03-25T15:51:36.123Z,7.87
2019-03-25T15:54:13.561Z,8.05
2019-03-25T15:56:53.107Z,7.98
2019-03-25T15:59:30.444Z,7.94
2019-03-25T16:02:13.314Z,7.89
2019-03-25T16:04:50.995Z,7.91
2019-03-25T16:07:27.846Z,7.91
2019-03-25T16:10:05.439Z,7.97
2019-03-25T16:12:40.379Z,8.08
2019-03-25T16:15:38.620Z,8.54
2019-03-25T16:18:38.049Z,8.87
2019-03-25T16:21:14.627Z,8.83
2019-03-25T16:23:54.097Z,8.81
2019-03-25T16:26:30.106Z,8.65
2019-03-25T16:29:04.898Z,8.64
2019-03-25T16:31:40.184Z,8.49
2019-03-25T16:34:15.235Z,8.41
2019-03-25T16:36:50.603Z,8.37
2019-03-25T16:39:29.032Z,8.31
2019-03-25T16:42:06.268Z,8.40
2019-03-25T16:44:43.414Z,8.35
2019-03-25T16:47:23.221Z,8.24
2019-03-25T16:50:02.288Z,8.24
2019-03-25T16:52:39.324Z,8.19
2019-03-25T16:55:14.068Z,8.17
2019-03-25T16:57:49.984Z,8.27
2019-03-25T17:00:27.714Z,8.20
2019-03-25T17:03:06.713Z,8.13
2019-03-25T17:05:43.265Z,8.10
2019-03-25T17:08:20.281Z,8.07
2019-03-25T17:10:56.679Z,8.04
2019-03-25T17:13:33.679Z,8.17
2019-03-25T17:16:09.748Z,8.26
2019-03-25T17:18:50.928Z,8.24
2019-03-25T17:21:27.680Z,8.27
2019-03-25T17:24:05.054Z,8.28
2019-03-25T17:26:43.591Z,8.36
2019-03-25T17:29:18.204Z,8.26
2019-03-25T17:31:54.902Z,8.15
2019-03-25T17:34:29.930Z,8.03
2019-03-25T17:37:06.486Z,7.91
2019-03-25T17:39:48.394Z,7.86
2019-03-25T17:42:26.315Z,7.87
2019-03-25T17:45:05.464Z,7.96
2019-03-25T17:47:41.391Z,7.95
2019-03-25T17:50:18.908Z,8.00
2019-03-25T17:52:55.365Z,8.06
2019-03-25T17:55:35.574Z,8.10
2019-03-25T17:58:10.247Z,8.13
2019-03-25T18:01:08.864Z,8.22
2019-03-25T18:03:44.474Z,8.19
2019-03-25T18:06:21.034Z,8.13
2019-03-25T18:08:58.946Z,8.15
2019-03-25T18:11:35.222Z,8.17
2019-03-25T18:14:12.655Z,8.24
2019-03-25T18:16:50.763Z,8.25
2019-03-25T18:19:34.735Z,8.21
2019-03-25T18:22:12.619Z,8.09
2019-03-25T18:24:51.479Z,7.88
2019-03-25T18:27:30.111Z,7.70
2019-03-25T18:30:14.265Z,7.64
2019-03-25T18:32:55.264Z,7.52
2019-03-25T18:35:31.460Z,7.47
2019-03-25T18:38:07.809Z,7.40
2019-03-25T18:40:45.834Z,7.33
2019-03-25T18:43:25.100Z,7.33
2019-03-25T18:46:02.005Z,7.29
2019-03-25T18:48:40.036Z,7.19
2019-03-25T18:51:15.598Z,7.18
2019-03-25T18:53:50.811Z,7.28
2019-03-25T18:56:34.476Z,7.24
2019-03-25T18:59:11.807Z,7.29
2019-03-25T19:01:54.529Z,7.34
2019-03-25T19:04:29.831Z,7.37
2019-03-25T19:07:06.970Z,7.43
2019-03-25T19:09:41.845Z,7.46
2019-03-25T19:12:18.247Z,7.51
2019-03-25T19:14:55.315Z,7.56
2019-03-25T19:17:34.589Z,7.61
2019-03-25T19:20:11.572Z,7.62
2019-03-25T19:22:47.549Z,7.56
2019-03-25T19:25:23.028Z,7.56
2019-03-25T19:28:02.107Z,7.60
2019-03-25T19:30:38.582Z,7.61
2019-03-25T19:33:13.245Z,7.53
2019-03-25T19:35:48.842Z,7.47
2019-03-25T19:38:26.885Z,7.51
2019-03-25T19:41:02.217Z,7.53
2019-03-25T19:43:41.925Z,7.54
2019-03-25T19:46:17.076Z,7.55
2019-03-25T19:48:54.520Z,7.53
2019-03-25T19:51:30.147Z,7.57
2019-03-25T19:54:05.352Z,7.63
2019-03-25T19:56:42.472Z,7.60
2019-03-25T19:59:17.314Z,7.59
2019-03-25T20:01:52.133Z,7.57
2019-03-25T20:04:28.651Z,7.56
2019-03-25T20:07:04.675Z,7.59
2019-03-25T20:09:42.611Z,7.52
2019-03-25T20:12:17.667Z,7.53
2019-03-25T20:14:52.880Z,7.64
2019-03-25T20:17:28.047Z,7.65
2019-03-25T20:20:04.222Z,7.66
2019-03-25T20:22:40.543Z,7.62
2019-03-25T20:25:16.050Z,7.60
2019-03-25T20:27:51.009Z,7.60
2019-03-25T20:30:27.527Z,7.53
2019-03-25T20:33:10.574Z,7.47
2019-03-25T20:35:45.639Z,7.42
2019-03-25T20:38:22.738Z,7.38
2019-03-25T20:40:57.782Z,7.39
2019-03-25T20:43:34.963Z,7.43
2019-03-25T20:46:10.856Z,7.46
2019-03-25T20:48:46.566Z,7.49
2019-03-25T20:51:22.073Z,7.48
2019-03-25T20:53:57.609Z,7.46
2019-03-25T20:56:32.749Z,7.41
2019-03-25T20:59:09.160Z,7.39
2019-03-25T21:01:45.235Z,7.37
2019-03-25T21:04:20.817Z,7.41
2019-03-25T21:06:55.963Z,7.34
2019-03-25T21:09:31.853Z,7.32
2019-03-25T21:12:07.284Z,7.32
2019-03-25T21:14:44.704Z,7.30
2019-03-25T21:17:20.970Z,7.28
2019-03-25T21:19:57.156Z,7.27
2019-03-25T21:22:34.310Z,7.27
2019-03-25T21:25:14.937Z,7.27
2019-03-25T21:27:49.676Z,7.27
2019-03-25T21:30:28.195Z,7.23
2019-03-25T21:33:05.556Z,7.24
2019-03-25T21:35:40.220Z,7.18
2019-03-25T21:38:16.688Z,7.14
2019-03-25T21:40:52.270Z,7.12
2019-03-25T21:43:27.443Z,7.09
2019-03-25T21:46:05.197Z,7.06
2019-03-25T21:48:42.438Z,7.02
2019-03-25T21:51:20.824Z,7.00
2019-03-25T21:53:57.431Z,7.02
2019-03-25T21:56:32.207Z,7.03
2019-03-25T21:59:08.851Z,7.01
2019-03-25T22:01:47.430Z,7.03
2019-03-25T22:04:23.843Z,7.00
2019-03-25T22:06:59.438Z,6.96
2019-03-25T22:09:45.507Z,6.95
2019-03-25T22:12:20.131Z,6.92
2019-03-25T22:14:55.226Z,6.91
2019-03-25T22:17:30.846Z,6.91
2019-03-25T22:20:07.143Z,6.88
2019-03-25T22:22:42.164Z,6.88
2019-03-25T22:25:18.105Z,6.86
2019-03-25T22:27:53.715Z,6.88
2019-03-25T22:30:30.757Z,6.84
2019-03-25T22:33:08.160Z,6.84
2019-03-25T22:35:45.279Z,6.81
2019-03-25T22:38:20.499Z,6.83
2019-03-25T22:40:55.399Z,6.78
2019-03-25T22:43:30.717Z,6.82
2019-03-25T22:46:06.282Z,6.81
2019-03-25T22:48:41.450Z,6.79
2019-03-25T22:51:20.847Z,6.76
2019-03-25T22:54:00.050Z,6.75
2019-03-25T22:56:37.568Z,6.73
2019-03-25T22:59:14.514Z,6.77
2019-03-25T23:01:58.499Z,6.74
2019-03-25T23:04:34.848Z,6.72
2019-03-25T23:07:35.210Z,6.71
2019-03-25T23:10:11.097Z,6.67
2019-03-25T23:12:45.905Z,6.67
2019-03-25T23:15:21.058Z,6.65
2019-03-25T23:17:56.201Z,6.61
2019-03-25T23:20:32.154Z,6.58
2019-03-25T23:23:08.638Z,6.55
2019-03-25T23:25:43.874Z,6.55
2019-03-25T23:28:19.197Z,6.58
2019-03-25T23:30:54.356Z,6.65
2019-03-25T23:33:30.326Z,6.60
2019-03-25T23:36:05.700Z,6.56
2019-03-25T23:38:41.730Z,6.50
2019-03-25T23:41:18.523Z,6.45
2019-03-25T23:43:54.687Z,6.43
2019-03-25T23:46:29.852Z,6.44
2019-03-25T23:49:04.519Z,6.47
2019-03-25T23:51:39.018Z,6.44
2019-03-25T23:54:15.511Z,6.46
2019-03-25T23:56:50.324Z,6.49
2019-03-25T23:59:25.450Z,6.47
